createdAt,value
2017-08-19T00:00:09.375Z,12.50
2017-08-19T00:02:37.754Z,12.50
2017-08-19T00:05:06.137Z,12.50
2017-08-19T00:07:35.273Z,12.50
2017-08-19T00:10:03.927Z,12.50
2017-08-19T00:12:33.062Z,12.50
2017-08-19T00:15:01.435Z,12.50
2017-08-19T00:17:29.817Z,12.40
2017-08-19T00:19:58.192Z,12.40
2017-08-19T00:22:26.933Z,12.40
2017-08-19T00:24:55.314Z,12.40
2017-08-19T00:27:23.677Z,12.40
2017-08-19T00:29:52.841Z,12.40
2017-08-19T00:32:21.211Z,12.30
2017-08-19T00:34:49.693Z,12.40
2017-08-19T00:37:18.062Z,12.40
2017-08-19T00:39:46.450Z,12.40
2017-08-19T00:42:14.838Z,12.30
2017-08-19T00:44:43.205Z,12.40
2017-08-19T00:47:11.681Z,12.30
2017-08-19T00:49:40.059Z,12.30
2017-08-19T00:52:08.437Z,12.30
2017-08-19T00:54:36.817Z,12.20
2017-08-19T00:57:05.191Z,12.20
2017-08-19T00:59:33.580Z,12.20
2017-08-19T01:02:01.953Z,12.10
2017-08-19T01:04:30.326Z,12.20
2017-08-19T01:06:58.373Z,12.10
2017-08-19T01:09:26.749Z,12.10
2017-08-19T01:11:54.802Z,12.10
2017-08-19T01:14:23.941Z,12.10
2017-08-19T01:16:52.325Z,12.10
2017-08-19T01:19:20.370Z,12.00
2017-08-19T01:21:48.741Z,12.00
2017-08-19T01:24:17.134Z,12.00
2017-08-19T01:26:56.722Z,12.00
2017-08-19T01:29:25.329Z,12.00
2017-08-19T01:31:54.480Z,12.00
2017-08-19T01:34:22.856Z,12.00
2017-08-19T01:36:51.258Z,12.00
2017-08-19T01:39:19.639Z,12.00
2017-08-19T01:41:48.042Z,11.90
2017-08-19T01:44:17.186Z,11.90
2017-08-19T01:46:45.565Z,11.90
2017-08-19T01:49:13.982Z,11.90
2017-08-19T01:51:42.361Z,11.90
2017-08-19T01:54:10.900Z,11.90
2017-08-19T01:56:39.274Z,11.90
2017-08-19T01:59:07.653Z,11.90
2017-08-19T02:01:36.041Z,11.90
2017-08-19T02:04:04.422Z,11.90
2017-08-19T02:06:33.055Z,11.90
2017-08-19T02:09:02.205Z,11.90
2017-08-19T02:11:30.595Z,11.90
2017-08-19T02:13:59.009Z,11.90
2017-08-19T02:16:27.394Z,11.90
2017-08-19T02:18:55.954Z,11.90
2017-08-19T02:21:25.101Z,11.90
2017-08-19T02:23:53.478Z,11.90
2017-08-19T02:26:21.918Z,11.80
2017-08-19T02:28:51.098Z,11.80
2017-08-19T02:31:19.589Z,11.80
2017-08-19T02:33:48.733Z,11.80
2017-08-19T02:36:17.111Z,11.80
2017-08-19T02:38:45.498Z,11.80
2017-08-19T02:41:13.893Z,11.80
2017-08-19T02:43:42.498Z,11.80
2017-08-19T02:46:10.881Z,11.80
2017-08-19T02:48:40.021Z,11.80
2017-08-19T02:51:08.401Z,11.80
2017-08-19T02:53:36.781Z,11.80
2017-08-19T02:56:05.188Z,11.70
2017-08-19T02:58:33.558Z,11.70
2017-08-19T03:01:02.014Z,11.60
2017-08-19T03:03:30.413Z,11.60
2017-08-19T03:05:58.786Z,11.60
2017-08-19T03:08:27.179Z,11.60
2017-08-19T03:10:55.566Z,11.60
2017-08-19T03:13:24.374Z,11.60
2017-08-19T03:15:53.543Z,11.60
2017-08-19T03:18:21.919Z,11.60
2017-08-19T03:20:50.318Z,11.60
2017-08-19T03:23:19.463Z,11.60
2017-08-19T03:25:47.876Z,11.60
2017-08-19T03:28:16.288Z,11.60
2017-08-19T03:30:45.442Z,11.50
2017-08-19T03:33:13.838Z,11.50
2017-08-19T03:35:42.223Z,11.50
2017-08-19T03:38:11.408Z,11.50
2017-08-19T03:40:39.790Z,11.50
2017-08-19T03:43:08.170Z,11.50
2017-08-19T03:45:36.557Z,11.50
2017-08-19T03:48:05.710Z,11.50
2017-08-19T03:50:34.351Z,11.50
2017-08-19T03:53:03.510Z,11.50
2017-08-19T03:55:31.895Z,11.50
2017-08-19T03:58:00.310Z,11.50
2017-08-19T04:00:28.010Z,11.50
2017-08-19T04:02:56.650Z,11.60
2017-08-19T04:05:25.803Z,11.50
2017-08-19T04:07:54.183Z,11.50
2017-08-19T04:10:22.577Z,11.50
2017-08-19T04:12:50.957Z,11.50
2017-08-19T04:15:19.561Z,11.50
2017-08-19T04:17:48.710Z,11.50
2017-08-19T04:20:17.123Z,11.50
2017-08-19T04:22:45.544Z,11.50
2017-08-19T04:25:13.924Z,11.50
2017-08-19T04:27:42.337Z,11.50
2017-08-19T04:30:10.724Z,11.60
2017-08-19T04:32:39.114Z,11.60
2017-08-19T04:35:07.503Z,11.50
2017-08-19T04:37:36.645Z,11.60
2017-08-19T04:40:05.397Z,11.60
2017-08-19T04:42:33.790Z,11.60
2017-08-19T04:45:02.171Z,11.60
2017-08-19T04:47:30.568Z,11.60
2017-08-19T04:49:58.939Z,11.60
2017-08-19T04:52:27.479Z,11.60
2017-08-19T04:54:56.624Z,11.60
2017-08-19T04:57:25.023Z,11.60
2017-08-19T04:59:53.433Z,11.60
2017-08-19T05:02:22.573Z,11.60
2017-08-19T05:04:51.125Z,11.60
2017-08-19T05:07:19.502Z,11.70
2017-08-19T05:09:47.885Z,11.70
2017-08-19T05:12:16.286Z,11.80
2017-08-19T05:14:44.674Z,11.90
2017-08-19T05:17:13.069Z,11.90
2017-08-19T05:19:41.447Z,12.00
2017-08-19T05:22:09.852Z,12.10
2017-08-19T05:24:39.005Z,12.20
2017-08-19T05:27:07.406Z,12.20
2017-08-19T05:29:35.787Z,12.30
2017-08-19T05:32:04.161Z,12.30
2017-08-19T05:34:32.568Z,12.40
2017-08-19T05:37:01.746Z,12.60
2017-08-19T05:39:30.542Z,12.50
2017-08-19T05:41:59.701Z,12.60
2017-08-19T05:44:28.082Z,12.60
2017-08-19T05:46:56.470Z,12.70
2017-08-19T05:49:24.858Z,12.70
2017-08-19T05:51:53.254Z,12.80
2017-08-19T05:54:22.446Z,12.90
2017-08-19T05:56:51.601Z,13.00
2017-08-19T05:59:20.048Z,13.00
2017-08-19T06:01:48.457Z,13.20
2017-08-19T06:04:16.885Z,13.40
2017-08-19T06:06:46.042Z,13.50
2017-08-19T06:09:14.425Z,13.50
2017-08-19T06:11:42.823Z,13.50
2017-08-19T06:14:11.218Z,13.50
2017-08-19T06:16:40.615Z,13.50
2017-08-19T06:19:08.998Z,13.50
2017-08-19T06:21:38.153Z,13.40
2017-08-19T06:24:06.554Z,13.40
2017-08-19T06:26:34.939Z,13.30
2017-08-19T06:29:04.213Z,13.40
2017-08-19T06:31:32.607Z,13.40
2017-08-19T06:34:00.987Z,13.30
2017-08-19T06:36:29.389Z,13.30
2017-08-19T06:38:57.769Z,13.30
2017-08-19T06:41:26.938Z,13.30
2017-08-19T06:43:55.322Z,13.30
2017-08-19T06:46:23.709Z,13.30
2017-08-19T06:48:52.870Z,13.40
2017-08-19T06:51:21.251Z,13.40
2017-08-19T06:53:49.808Z,13.40
2017-08-19T06:56:18.186Z,13.50
2017-08-19T06:58:46.566Z,13.60
2017-08-19T07:01:14.958Z,13.50
2017-08-19T07:03:43.351Z,13.60
2017-08-19T07:06:11.761Z,13.70
2017-08-19T07:08:40.150Z,13.70
2017-08-19T07:11:08.524Z,13.70
2017-08-19T07:13:36.923Z,13.70
2017-08-19T07:16:05.306Z,13.80
2017-08-19T07:18:34.196Z,13.90
2017-08-19T07:21:02.574Z,13.90
2017-08-19T07:23:30.966Z,13.80
2017-08-19T07:25:59.360Z,13.90
2017-08-19T07:28:27.834Z,14.30
2017-08-19T07:30:56.638Z,14.50
2017-08-19T07:33:24.823Z,14.70
2017-08-19T07:35:53.263Z,15.00
2017-08-19T07:38:21.672Z,15.20
2017-08-19T07:40:50.062Z,15.30
2017-08-19T07:43:18.446Z,15.20
2017-08-19T07:45:46.841Z,15.30
2017-08-19T07:48:15.990Z,15.40
2017-08-19T07:50:44.411Z,15.40
2017-08-19T07:53:12.857Z,15.40
2017-08-19T07:55:41.306Z,15.20
2017-08-19T07:58:09.695Z,15.20
2017-08-19T08:00:38.078Z,15.30
2017-08-19T08:03:06.486Z,15.30
2017-08-19T08:05:34.874Z,15.20
2017-08-19T08:08:03.410Z,15.10
2017-08-19T08:10:31.798Z,15.00
2017-08-19T08:12:59.999Z,15.00
2017-08-19T08:15:28.252Z,14.90
2017-08-19T08:17:56.693Z,14.60
2017-08-19T08:20:25.192Z,14.40
2017-08-19T08:22:53.627Z,14.30
2017-08-19T08:25:22.066Z,14.20
2017-08-19T08:27:50.491Z,14.20
2017-08-19T08:30:21.146Z,14.20
2017-08-19T08:32:49.704Z,14.20
2017-08-19T08:35:18.869Z,14.20
2017-08-19T08:37:47.260Z,14.20
2017-08-19T08:40:15.637Z,14.30
2017-08-19T08:42:44.013Z,14.50
2017-08-19T08:45:12.555Z,14.50
2017-08-19T08:47:41.010Z,14.50
2017-08-19T08:50:10.181Z,14.90
2017-08-19T08:52:38.588Z,14.90
2017-08-19T08:55:08.203Z,15.10
2017-08-19T08:57:36.791Z,15.10
2017-08-19T09:00:04.488Z,15.20
2017-08-19T09:02:32.893Z,15.50
2017-08-19T09:05:01.303Z,15.80
2017-08-19T09:07:31.828Z,15.90
2017-08-19T09:10:00.751Z,15.80
2017-08-19T09:12:30.704Z,15.80
2017-08-19T09:14:59.151Z,15.90
2017-08-19T09:17:27.640Z,15.90
2017-08-19T09:19:56.109Z,15.90
2017-08-19T09:22:25.198Z,16.20
2017-08-19T09:24:53.679Z,16.20
2017-08-19T09:27:22.074Z,16.00
2017-08-19T09:29:50.487Z,15.90
2017-08-19T09:32:19.667Z,16.20
2017-08-19T09:34:48.078Z,16.10
2017-08-19T09:37:16.457Z,16.30
2017-08-19T09:39:45.344Z,16.40
2017-08-19T09:42:13.742Z,16.40
2017-08-19T09:44:42.122Z,16.50
2017-08-19T09:47:10.903Z,16.40
2017-08-19T09:49:39.492Z,16.30
2017-08-19T09:52:07.866Z,16.30
2017-08-19T09:54:36.258Z,16.50
2017-08-19T09:57:04.687Z,16.40
2017-08-19T09:59:33.126Z,16.30
2017-08-19T10:02:01.638Z,16.10
2017-08-19T10:04:30.144Z,16.00
2017-08-19T10:06:58.579Z,16.20
2017-08-19T10:09:38.239Z,16.30
2017-08-19T10:12:06.696Z,16.30
2017-08-19T10:14:35.158Z,16.40
2017-08-19T10:17:03.581Z,16.40
2017-08-19T10:19:31.992Z,16.40
2017-08-19T10:22:00.456Z,16.40
2017-08-19T10:24:29.623Z,16.30
2017-08-19T10:26:58.010Z,16.30
2017-08-19T10:29:26.386Z,16.20
2017-08-19T10:31:54.782Z,16.20
2017-08-19T10:34:23.192Z,16.30
2017-08-19T10:36:51.905Z,16.40
2017-08-19T10:39:20.310Z,16.50
2017-08-19T10:41:48.522Z,16.60
2017-08-19T10:44:16.914Z,17.00
2017-08-19T10:46:45.320Z,17.50
2017-08-19T10:49:14.068Z,17.80
2017-08-19T10:51:42.453Z,18.20
2017-08-19T10:54:10.835Z,18.50
2017-08-19T10:56:39.230Z,18.80
2017-08-19T10:59:07.609Z,19.00
2017-08-19T11:01:36.031Z,19.40
2017-08-19T11:04:04.414Z,19.50
2017-08-19T11:06:33.235Z,18.90
2017-08-19T11:09:01.618Z,18.90
2017-08-19T11:11:29.996Z,18.90
2017-08-19T11:13:58.404Z,19.00
2017-08-19T11:16:26.824Z,19.00
2017-08-19T11:18:55.974Z,19.10
2017-08-19T11:21:24.386Z,19.10
2017-08-19T11:23:52.769Z,18.80
2017-08-19T11:26:21.975Z,19.20
2017-08-19T11:28:51.127Z,19.30
2017-08-19T11:31:19.513Z,19.30
2017-08-19T11:33:47.913Z,19.30
2017-08-19T11:36:16.293Z,19.40
2017-08-19T11:38:44.888Z,19.60
2017-08-19T11:41:14.051Z,19.90
2017-08-19T11:43:42.434Z,20.00
2017-08-19T11:46:10.838Z,19.90
2017-08-19T11:48:40.034Z,19.10
2017-08-19T11:51:09.296Z,18.90
2017-08-19T11:53:37.754Z,18.90
2017-08-19T11:56:06.127Z,19.40
2017-08-19T11:58:34.542Z,19.80
2017-08-19T12:01:02.937Z,19.90
2017-08-19T12:03:31.367Z,19.90
2017-08-19T12:05:59.746Z,20.20
2017-08-19T12:08:28.126Z,20.60
2017-08-19T12:10:56.514Z,20.90
2017-08-19T12:13:24.885Z,20.90
2017-08-19T12:15:53.310Z,21.20
2017-08-19T12:18:22.462Z,21.00
2017-08-19T12:20:50.839Z,21.00
2017-08-19T12:23:19.245Z,21.00
2017-08-19T12:25:47.649Z,20.60
2017-08-19T12:28:16.923Z,19.90
2017-08-19T12:30:45.310Z,19.90
2017-08-19T12:33:13.690Z,20.20
2017-08-19T12:35:42.077Z,20.30
2017-08-19T12:38:10.461Z,20.40
2017-08-19T12:40:39.730Z,20.30
2017-08-19T12:43:08.123Z,20.30
2017-08-19T12:45:36.528Z,20.00
2017-08-19T12:48:04.917Z,20.00
2017-08-19T12:50:33.123Z,19.90
2017-08-19T12:53:01.759Z,19.70
2017-08-19T12:55:30.148Z,19.70
2017-08-19T12:57:58.526Z,19.70
2017-08-19T13:00:26.925Z,19.50
2017-08-19T13:02:55.323Z,19.10
2017-08-19T13:05:24.150Z,19.10
2017-08-19T13:07:52.532Z,19.00
2017-08-19T13:10:21.683Z,18.90
2017-08-19T13:12:50.137Z,18.90
2017-08-19T13:15:18.529Z,18.90
2017-08-19T13:17:46.960Z,19.00
2017-08-19T13:20:15.351Z,18.90
2017-08-19T13:22:44.580Z,18.90
2017-08-19T13:25:12.970Z,18.80
2017-08-19T13:27:41.361Z,18.80
2017-08-19T13:30:09.978Z,18.60
2017-08-19T13:32:39.139Z,18.20
2017-08-19T13:35:07.518Z,18.20
2017-08-19T13:37:35.910Z,18.20
2017-08-19T13:40:05.090Z,17.70
2017-08-19T13:42:33.497Z,17.70
2017-08-19T13:45:01.882Z,17.50
2017-08-19T13:47:31.038Z,17.30
2017-08-19T13:49:59.434Z,17.20
2017-08-19T13:52:27.875Z,17.30
2017-08-19T13:54:56.586Z,17.40
2017-08-19T13:57:24.962Z,17.40
2017-08-19T13:59:53.342Z,17.40
2017-08-19T14:02:21.733Z,17.50
2017-08-19T14:04:50.116Z,17.40
2017-08-19T14:07:18.613Z,17.50
2017-08-19T14:09:47.770Z,17.70
2017-08-19T14:12:16.158Z,17.70
2017-08-19T14:14:44.550Z,18.10
2017-08-19T14:17:12.937Z,18.40
2017-08-19T14:19:42.105Z,18.50
2017-08-19T14:22:10.494Z,18.50
2017-08-19T14:24:39.109Z,18.50
2017-08-19T14:27:08.305Z,18.20
2017-08-19T14:29:37.454Z,18.30
2017-08-19T14:32:06.302Z,18.30
2017-08-19T14:34:34.694Z,17.80
2017-08-19T14:37:03.085Z,16.40
2017-08-19T14:39:31.466Z,15.90
2017-08-19T14:41:59.899Z,15.70
2017-08-19T14:44:29.049Z,15.20
2017-08-19T14:46:57.431Z,15.10
2017-08-19T14:49:25.818Z,15.20
2017-08-19T14:51:54.209Z,15.10
2017-08-19T14:54:22.853Z,15.10
2017-08-19T14:56:51.238Z,15.00
2017-08-19T14:59:19.630Z,15.00
2017-08-19T15:01:48.048Z,15.10
2017-08-19T15:04:17.206Z,15.20
2017-08-19T15:06:45.829Z,15.20
2017-08-19T15:09:14.988Z,15.30
2017-08-19T15:11:43.369Z,15.20
2017-08-19T15:14:11.774Z,15.20
2017-08-19T15:16:40.945Z,15.30
2017-08-19T15:19:09.393Z,15.30
2017-08-19T15:21:37.779Z,15.40
2017-08-19T15:24:06.154Z,15.60
2017-08-19T15:26:34.554Z,15.70
2017-08-19T15:29:02.742Z,15.70
2017-08-19T15:31:31.381Z,15.90
2017-08-19T15:33:59.871Z,16.10
2017-08-19T15:36:28.351Z,16.20
2017-08-19T15:38:56.741Z,16.10
2017-08-19T15:41:25.125Z,15.90
2017-08-19T15:43:53.790Z,15.60
2017-08-19T15:46:22.167Z,15.30
2017-08-19T15:48:50.559Z,15.10
2017-08-19T15:51:18.961Z,14.90
2017-08-19T15:53:47.342Z,14.80
2017-08-19T15:56:15.986Z,14.80
2017-08-19T15:58:44.406Z,14.90
2017-08-19T16:01:15.237Z,15.00
2017-08-19T16:03:43.660Z,15.00
2017-08-19T16:06:12.794Z,15.20
2017-08-19T16:08:41.241Z,15.20
2017-08-19T16:11:10.174Z,15.30
2017-08-19T16:13:38.838Z,15.60
2017-08-19T16:16:07.257Z,15.70
2017-08-19T16:18:35.770Z,15.60
2017-08-19T16:21:04.279Z,15.70
2017-08-19T16:23:32.698Z,15.80
2017-08-19T16:26:02.826Z,15.80
2017-08-19T16:28:32.067Z,15.80
2017-08-19T16:31:00.455Z,15.80
2017-08-19T16:33:29.529Z,15.90
2017-08-19T16:35:57.915Z,15.90
2017-08-19T16:38:26.391Z,15.80
2017-08-19T16:40:54.842Z,15.50
2017-08-19T16:43:23.331Z,15.40
2017-08-19T16:45:54.553Z,15.10
2017-08-19T16:48:22.646Z,15.10
2017-08-19T16:50:51.089Z,15.10
2017-08-19T16:53:19.467Z,15.00
2017-08-19T16:55:47.854Z,15.00
2017-08-19T16:58:16.295Z,15.00
2017-08-19T17:00:44.760Z,15.10
2017-08-19T17:03:14.574Z,15.20
2017-08-19T17:05:43.045Z,15.20
2017-08-19T17:08:11.454Z,15.20
2017-08-19T17:10:39.851Z,15.10
2017-08-19T17:13:08.291Z,15.20
2017-08-19T17:15:36.942Z,15.10
2017-08-19T17:18:05.349Z,15.10
2017-08-19T17:20:33.767Z,15.00
2017-08-19T17:23:02.185Z,14.90
2017-08-19T17:25:30.572Z,14.80
2017-08-19T17:27:58.971Z,14.80
2017-08-19T17:30:27.349Z,14.80
2017-08-19T17:32:55.778Z,14.70
2017-08-19T17:35:24.953Z,14.70
2017-08-19T17:37:53.337Z,14.60
2017-08-19T17:40:21.950Z,14.70
2017-08-19T17:42:51.023Z,14.70
2017-08-19T17:45:20.088Z,14.80
2017-08-19T17:47:48.510Z,14.80
2017-08-19T17:50:17.772Z,14.80
2017-08-19T17:52:46.223Z,14.80
2017-08-19T17:55:14.621Z,14.90
2017-08-19T17:57:43.021Z,14.90
2017-08-19T18:00:11.425Z,14.90
2017-08-19T18:02:40.580Z,14.80
2017-08-19T18:05:08.979Z,14.80
2017-08-19T18:07:37.355Z,14.80
2017-08-19T18:10:05.758Z,14.70
2017-08-19T18:12:34.926Z,14.60
2017-08-19T18:15:03.312Z,14.60
2017-08-19T18:17:31.729Z,14.60
2017-08-19T18:20:00.110Z,14.50
2017-08-19T18:22:28.570Z,14.60
2017-08-19T18:24:56.957Z,14.60
2017-08-19T18:27:26.110Z,14.50
2017-08-19T18:29:54.505Z,14.50
2017-08-19T18:32:22.887Z,14.50
2017-08-19T18:34:51.288Z,14.40
2017-08-19T18:37:20.441Z,14.30
2017-08-19T18:39:48.826Z,14.30
2017-08-19T18:42:17.243Z,14.20
2017-08-19T18:44:46.390Z,14.20
2017-08-19T18:47:14.881Z,14.10
2017-08-19T18:52:33.900Z,14.10
2017-08-19T18:55:02.299Z,14.10
2017-08-19T18:57:30.685Z,14.10
2017-08-19T18:59:59.057Z,14.00
2017-08-19T19:02:27.455Z,14.00
2017-08-19T19:04:55.838Z,14.00
2017-08-19T19:07:24.238Z,14.00
2017-08-19T19:09:52.765Z,14.00
2017-08-19T19:12:21.142Z,14.00
2017-08-19T19:14:49.353Z,14.10
2017-08-19T19:17:17.816Z,14.10
2017-08-19T19:19:46.230Z,14.10
2017-08-19T19:22:14.606Z,14.20
2017-08-19T19:24:42.998Z,14.10
2017-08-19T19:27:12.153Z,14.30
2017-08-19T19:29:40.546Z,14.30
2017-08-19T19:32:08.942Z,14.40
2017-08-19T19:34:37.321Z,14.30
2017-08-19T19:37:05.698Z,14.20
2017-08-19T19:39:34.094Z,14.30
2017-08-19T19:42:03.249Z,14.30
2017-08-19T19:44:31.656Z,14.30
2017-08-19T19:47:00.050Z,14.30
2017-08-19T19:49:29.208Z,14.40
2017-08-19T19:51:57.607Z,14.40
2017-08-19T19:54:25.810Z,14.40
2017-08-19T19:56:54.224Z,14.30
2017-08-19T19:59:22.612Z,14.20
2017-08-19T20:01:50.997Z,14.20
2017-08-19T20:04:19.429Z,14.10
2017-08-19T20:06:47.806Z,14.10
2017-08-19T20:09:16.214Z,14.10
2017-08-19T20:11:44.606Z,14.10
2017-08-19T20:14:12.988Z,14.10
2017-08-19T20:16:41.394Z,14.10
2017-08-19T20:19:10.539Z,14.00
2017-08-19T20:21:38.959Z,14.00
2017-08-19T20:24:07.340Z,14.10
2017-08-19T20:26:35.730Z,14.20
2017-08-19T20:29:04.162Z,14.10
2017-08-19T20:31:32.545Z,14.00
2017-08-19T20:34:00.964Z,14.00
2017-08-19T20:36:30.110Z,14.10
2017-08-19T20:38:58.503Z,14.10
2017-08-19T20:41:26.916Z,14.00
2017-08-19T20:43:56.105Z,13.80
2017-08-19T20:46:24.522Z,13.80
2017-08-19T20:48:53.102Z,13.70
2017-08-19T20:51:21.481Z,13.70
2017-08-19T20:53:49.887Z,13.60
2017-08-19T20:56:18.279Z,13.40
2017-08-19T20:58:46.677Z,13.40
2017-08-19T21:01:15.067Z,13.30
2017-08-19T21:03:44.218Z,13.20
2017-08-19T21:06:12.615Z,13.20
2017-08-19T21:08:40.639Z,13.20
2017-08-19T21:11:09.034Z,13.20
2017-08-19T21:13:37.413Z,13.20
2017-08-19T21:16:05.799Z,13.20
2017-08-19T21:18:34.203Z,13.10
2017-08-19T21:21:02.607Z,13.10
2017-08-19T21:23:32.414Z,13.00
2017-08-19T21:26:01.560Z,12.90
2017-08-19T21:28:29.941Z,12.90
2017-08-19T21:30:58.346Z,12.90
2017-08-19T21:33:26.723Z,12.90
2017-08-19T21:35:55.101Z,12.80
2017-08-19T21:38:23.503Z,12.80
2017-08-19T21:40:52.653Z,12.60
2017-08-19T21:43:21.058Z,12.60
2017-08-19T21:45:49.452Z,12.60
2017-08-19T21:48:18.609Z,12.50
2017-08-19T21:50:47.086Z,12.50
2017-08-19T21:53:15.466Z,12.50
2017-08-19T21:55:43.846Z,12.50
2017-08-19T21:58:12.234Z,12.50
2017-08-19T22:00:40.635Z,12.40
2017-08-19T22:03:09.047Z,12.40
2017-08-19T22:05:37.424Z,12.50
2017-08-19T22:08:05.922Z,12.50
2017-08-19T22:10:34.369Z,12.40
2017-08-19T22:13:02.788Z,12.40
2017-08-19T22:15:31.174Z,12.30
2017-08-19T22:17:59.548Z,12.30
2017-08-19T22:20:27.959Z,12.20
2017-08-19T22:22:56.337Z,12.20
2017-08-19T22:25:24.718Z,12.20
2017-08-19T22:27:53.117Z,12.20
2017-08-19T22:30:22.265Z,12.20
2017-08-19T22:32:50.704Z,12.10
2017-08-19T22:35:19.118Z,12.20
2017-08-19T22:37:47.502Z,12.20
2017-08-19T22:40:15.894Z,12.20
2017-08-19T22:42:44.274Z,12.10
2017-08-19T22:45:12.664Z,12.20
2017-08-19T22:47:41.065Z,12.20
2017-08-19T22:50:09.449Z,12.30
2017-08-19T22:52:37.856Z,12.30
2017-08-19T22:55:06.266Z,12.30
2017-08-19T22:57:34.678Z,12.30
2017-08-19T23:00:03.556Z,12.30
2017-08-19T23:02:32.709Z,12.30
2017-08-19T23:05:01.085Z,12.20
2017-08-19T23:07:29.504Z,12.20
2017-08-19T23:09:58.664Z,12.10
2017-08-19T23:12:27.086Z,12.10
2017-08-19T23:14:55.467Z,12.10
2017-08-19T23:17:24.637Z,12.10
2017-08-19T23:19:52.881Z,12.10
2017-08-19T23:22:21.277Z,12.00
2017-08-19T23:24:49.706Z,12.00
2017-08-19T23:27:18.110Z,12.00
2017-08-19T23:29:46.494Z,12.00
2017-08-19T23:32:14.890Z,12.00
2017-08-19T23:34:43.281Z,11.90
2017-08-19T23:37:11.685Z,12.00
2017-08-19T23:39:40.842Z,12.00
2017-08-19T23:42:09.213Z,11.90
2017-08-19T23:44:37.615Z,11.90
2017-08-19T23:47:06.013Z,11.90
2017-08-19T23:49:35.187Z,11.90
2017-08-19T23:52:03.566Z,11.90
2017-08-19T23:54:31.770Z,11.80
2017-08-19T23:57:00.923Z,11.70
2017-08-19T23:59:29.310Z,11.70
